Time;durP1;ratioP1;P1;durP2;ratioP2;P2;SDS_P1;SDS_P2;PMS_P1;PMS_P2;Temp;Humidity;BMP_temperature;BMP_pressure;BME280_temperature;BME280_humidity;BME280_pressure;Samples;Min_cycle;Max_cycle;Signal;HPM_P1;HPM_P2
2021/12/01 00:02:15;;;;;;;6.18;2.03;;;;;;;;;;4955408;29;20031;-93
2021/12/01 00:04:42;;;;;;;4.47;1.80;;;;;;;;;;4950828;29;20119;-93
2021/12/01 00:07:09;;;;;;;7.07;2.20;;;;;;;;;;4928907;29;20090;-94
2021/12/01 00:09:35;;;;;;;3.63;2.58;;;;;;;;;;4954275;28;20390;-91
2021/12/01 00:12:01;;;;;;;3.42;1.58;;;;;;;;;;4933552;29;20087;-94
2021/12/01 00:14:27;;;;;;;4.55;2.03;;;;;;;;;;4937643;29;20035;-93
2021/12/01 00:16:53;;;;;;;4.72;3.03;;;;;;;;;;4954404;28;20058;-94
2021/12/01 00:19:19;;;;;;;4.43;2.08;;;;;;;;;;4947481;29;20115;-93
2021/12/01 00:21:46;;;;;;;7.38;3.38;;;;;;;;;;4954671;28;20031;-93
2021/12/01 00:24:12;;;;;;;6.10;3.28;;;;;;;;;;4939465;29;20078;-93
2021/12/01 00:26:37;;;;;;;4.45;3.00;;;;;;;;;;4927770;29;20087;-92
2021/12/01 00:29:04;;;;;;;5.47;2.75;;;;;;;;;;4923649;29;20062;-94
2021/12/01 00:31:30;;;;;;;15.50;4.97;;;;;;;;;;4954565;29;20588;-93
2021/12/01 00:33:56;;;;;;;3.55;2.55;;;;;;;;;;4954241;29;20063;-94
2021/12/01 00:36:22;;;;;;;4.90;2.92;;;;;;;;;;4954744;29;20027;-93
2021/12/01 00:38:48;;;;;;;14.05;2.13;;;;;;;;;;4945676;29;20038;-93
2021/12/01 00:41:15;;;;;;;4.43;2.85;;;4.60;80.90;;;;;;4937246;29;20157;-94
2021/12/01 00:43:41;;;;;;;2.78;1.38;;;;;;;;;;4958392;28;20078;-93
2021/12/01 00:46:12;;;;;;;4.32;2.88;;;4.50;80.60;;;;;;4974003;28;20033;-95
2021/12/01 00:48:38;;;;;;;4.53;2.28;;;;;;;;;;4972276;28;20055;-94
2021/12/01 00:51:04;;;;;;;5.43;2.20;;;;;;;;;;4974268;28;20023;-93
2021/12/01 00:53:31;;;;;;;8.05;2.50;;;;;;;;;;4968499;28;20020;-93
2021/12/01 00:55:57;;;;;;;3.78;2.22;;;;;;;;;;4959222;28;20034;-94
2021/12/01 00:58:23;;;;;;;3.67;1.80;;;;;;;;;;4974206;28;20035;-94
2021/12/01 01:00:49;;;;;;;1.20;1.10;;;;;;;;;;4973741;28;20019;-94
2021/12/01 01:03:15;;;;;;;2.60;1.42;;;;;;;;;;4976307;28;20088;-93
2021/12/01 01:05:41;;;;;;;2.30;1.63;;;;;;;;;;4961343;28;20023;-94
2021/12/01 01:08:08;;;;;;;6.15;3.03;;;;;;;;;;4973946;28;20114;-94
2021/12/01 01:18:47;;;;;;;1.65;1.55;;;;;;;;;;4973863;28;20116;-93
2021/12/01 01:21:14;;;;;;;1.77;1.52;;;;;;;;;;4972404;28;20400;-94
2021/12/01 01:23:40;;;;;;;1.95;1.55;;;4.40;78.40;;;;;;4973806;28;20095;-94
2021/12/01 01:26:09;;;;;;;4.32;1.65;;;4.30;77.10;;;;;;4957432;28;20026;-94
2021/12/01 01:28:35;;;;;;;3.08;1.30;;;;;;;;;;4956107;28;20046;-95
2021/12/01 01:31:02;;;;;;;2.70;1.13;;;4.40;77.20;;;;;;4973919;28;20070;-95
2021/12/01 01:33:28;;;;;;;1.38;1.17;;;;;;;;;;4973393;28;20031;-94
2021/12/01 01:35:54;;;;;;;3.30;1.42;;;;;;;;;;4973357;28;20114;-93
2021/12/01 01:38:20;;;;;;;2.08;1.45;;;4.30;77.70;;;;;;4980952;28;20117;-94
2021/12/01 01:40:46;;;;;;;4.32;1.75;;;;;;;;;;4991125;28;20488;-94
2021/12/01 01:43:13;;;;;;;4.72;1.20;;;;;;;;;;4959773;28;20122;-94
2021/12/01 01:45:39;;;;;;;4.35;1.17;;;;;;;;;;4976698;28;20048;-94
2021/12/01 01:48:10;;;;;;;1.85;1.15;;;4.20;77.50;;;;;;4990871;28;20033;-93
2021/12/01 01:50:37;;;;;;;3.47;1.20;;;;;;;;;;4985837;28;20038;-96
2021/12/01 01:53:03;;;;;;;1.08;1.05;;;;;;;;;;4976734;28;20045;-93
2021/12/01 01:55:29;;;;;;;4.60;1.63;;;;;;;;;;4977016;28;20027;-93
2021/12/01 01:57:55;;;;;;;2.63;1.42;;;;;;;;;;4975673;28;20481;-94
2021/12/01 02:00:21;;;;;;;1.90;1.63;;;;;;;;;;4964976;28;20027;-94
2021/12/01 02:02:48;;;;;;;1.00;0.90;;;;;;;;;;4968954;28;20563;-94
2021/12/01 02:05:14;;;;;;;0.50;0.50;;;;;;;;;;4986782;28;20023;-92
2021/12/01 02:07:42;;;;;;;1.15;1.05;;;;;;;;;;4976360;28;20033;-93
2021/12/01 02:10:08;;;;;;;8.02;1.17;;;;;;;;;;4976503;28;20089;-94
2021/12/01 02:12:34;;;;;;;1.83;1.55;;;;;;;;;;4959004;28;20019;-94
2021/12/01 02:15:01;;;;;;;0.80;0.80;;;;;;;;;;4975246;28;20121;-93
2021/12/01 02:17:27;;;;;;;2.17;1.35;;;;;;;;;;4959332;28;20070;-93
2021/12/01 02:19:53;;;;;;;1.00;0.90;;;;;;;;;;4975806;28;20038;-94
2021/12/01 02:22:19;;;;;;;1.13;1.02;;;;;;;;;;4959108;28;20118;-93
2021/12/01 02:24:46;;;;;;;1.27;0.88;;;;;;;;;;4975593;28;20126;-93
2021/12/01 02:27:13;;;;;;;0.80;0.80;;;;;;;;;;4974532;28;20037;-95
2021/12/01 02:29:39;;;;;;;0.70;0.70;;;;;;;;;;4956752;28;20051;-93
2021/12/01 02:32:05;;;;;;;7.28;2.00;;;;;;;;;;4974715;28;20027;-93
2021/12/01 02:34:38;;;;;;;0.70;0.70;;;4.50;74.70;;;;;;4975005;28;20047;-94
2021/12/01 02:37:05;;;;;;;0.60;0.60;;;;;;;;;;4974313;28;20031;-94
2021/12/01 02:39:31;;;;;;;0.77;0.70;;;;;;;;;;4976207;28;20130;-93
2021/12/01 02:41:58;;;;;;;3.72;1.25;;;;;;;;;;4968901;28;20035;-94
2021/12/01 02:44:25;;;;;;;0.70;0.70;;;4.40;75.20;;;;;;4964657;28;20054;-93
2021/12/01 02:46:51;;;;;;;1.65;1.23;;;;;;;;;;4971545;28;20039;-94
2021/12/01 02:49:22;;;;;;;4.60;1.70;;;4.30;74.80;;;;;;4988602;28;20057;-92
2021/12/01 02:51:53;;;;;;;3.38;1.40;;;;;;;;;;4971807;28;20438;-94
2021/12/01 02:54:20;;;;;;;5.35;2.50;;;;;;;;;;4975771;28;20037;-93
2021/12/01 02:56:47;;;;;;;3.42;1.35;;;;;;;;;;4968744;28;20078;-93
2021/12/01 02:59:14;;;;;;;2.83;1.77;;;4.40;74.00;;;;;;4961607;28;20027;-94
2021/12/01 03:01:40;;;;;;;1.55;1.20;;;;;;;;;;4958265;28;20050;-93
2021/12/01 03:04:08;;;;;;;2.22;1.05;;;4.50;73.40;;;;;;4972355;28;20050;-94
2021/12/01 03:06:36;;;;;;;0.80;0.75;;;;;;;;;;4975772;28;20500;-93
2021/12/01 03:09:02;;;;;;;3.70;1.58;;;;;;;;;;4975193;28;20042;-94
2021/12/01 03:11:28;;;;;;;6.15;1.30;;;;;;;;;;4975796;28;20062;-93
2021/12/01 03:13:54;;;;;;;1.58;1.00;;;4.40;74.90;;;;;;4975276;28;20392;-93
2021/12/01 03:16:21;;;;;;;1.15;0.70;;;;;;;;;;4974486;28;20503;-93
2021/12/01 03:18:47;;;;;;;1.55;1.20;;;;;;;;;;4974274;28;20030;-93
2021/12/01 03:21:14;;;;;;;5.00;1.63;;;;;;;;;;4975622;28;20031;-93
2021/12/01 03:23:40;;;;;;;7.97;2.17;;;;;;;;;;4974157;28;20058;-94
2021/12/01 03:26:07;;;;;;;8.25;2.28;;;4.40;74.50;;;;;;4974204;28;20023;-92
2021/12/01 03:28:33;;;;;;;7.40;1.98;;;;;;;;;;4974944;28;20117;-93
2021/12/01 03:30:59;;;;;;;3.22;1.13;;;;;;;;;;4975471;28;20054;-93
2021/12/01 03:33:25;;;;;;;2.10;1.05;;;;;;;;;;4973821;28;20058;-93
2021/12/01 03:35:52;;;;;;;2.03;1.33;;;;;;;;;;4974814;28;20085;-94
2021/12/01 03:38:20;;;;;;;3.20;1.23;;;4.00;75.90;;;;;;4974716;28;20038;-94
2021/12/01 03:40:46;;;;;;;1.25;0.88;;;;;;;;;;4955755;28;20086;-93
2021/12/01 03:43:13;;;;;;;1.77;1.25;;;;;;;;;;4973527;28;20029;-93
2021/12/01 03:45:39;;;;;;;1.48;0.95;;;;;;;;;;4970278;28;20512;-93
2021/12/01 03:48:05;;;;;;;0.73;0.73;;;;;;;;;;4968547;28;20030;-93
2021/12/01 03:50:31;;;;;;;1.95;1.60;;;;;;;;;;4974344;28;20117;-93
2021/12/01 03:52:57;;;;;;;3.17;1.27;;;;;;;;;;4973018;28;20030;-94
2021/12/01 03:55:24;;;;;;;0.90;0.90;;;;;;;;;;4974881;28;20503;-94
2021/12/01 03:57:50;;;;;;;0.60;0.60;;;;;;;;;;4974244;28;20078;-92
2021/12/01 04:00:17;;;;;;;1.52;1.00;;;;;;;;;;4974319;28;20035;-93
2021/12/01 04:02:43;;;;;;;1.50;1.00;;;;;;;;;;4972182;28;20029;-93
2021/12/01 04:05:10;;;;;;;1.10;0.73;;;;;;;;;;4969678;28;20042;-92
2021/12/01 04:07:36;;;;;;;0.50;0.50;;;;;;;;;;4956615;28;20106;-94
2021/12/01 04:10:05;;;;;;;1.42;0.98;;;4.10;76.60;;;;;;4974055;28;20038;-93
2021/12/01 04:12:31;;;;;;;1.08;0.98;;;;;;;;;;4956307;28;20031;-92
2021/12/01 04:14:57;;;;;;;5.25;1.13;;;;;;;;;;4974155;28;20026;-92
2021/12/01 04:17:24;;;;;;;14.35;1.20;;;;;;;;;;4974174;28;20034;-93
2021/12/01 04:19:50;;;;;;;1.27;0.82;;;;;;;;;;4974247;28;20075;-92
2021/12/01 04:22:16;;;;;;;1.13;1.02;;;;;;;;;;4974226;28;20488;-92
2021/12/01 04:24:42;;;;;;;0.93;0.93;;;;;;;;;;4974310;28;20027;-92
2021/12/01 04:27:09;;;;;;;1.90;1.10;;;;;;;;;;4974273;28;20499;-93
2021/12/01 04:29:35;;;;;;;0.70;0.70;;;;;;;;;;4974545;28;20404;-93
2021/12/01 04:32:01;;;;;;;1.02;0.93;;;4.60;76.20;;;;;;4973064;28;20030;-93
2021/12/01 04:34:27;;;;;;;2.65;1.08;;;;;;;;;;4973709;28;20089;-91
2021/12/01 04:36:53;;;;;;;1.00;0.93;;;;;;;;;;4973148;28;20023;-93
2021/12/01 04:39:20;;;;;;;1.58;1.13;;;;;;;;;;4975444;28;20027;-92
2021/12/01 04:41:57;;;;;;;1.77;0.93;;;4.40;76.70;;;;;;4976949;28;20039;-92
2021/12/01 04:44:25;;;;;;;1.00;0.95;;;;;;;;;;4972649;28;20047;-92
2021/12/01 04:46:53;;;;;;;;;;;4.40;77.40;;;;;;4973566;28;20041;-93
2021/12/01 04:49:21;;;;;;;1.15;0.95;;;4.50;77.50;;;;;;4974158;28;19952;-92
2021/12/01 04:51:48;;;;;;;;;;;4.60;78.80;;;;;;4976479;28;20054;-94
2021/12/01 04:54:14;;;;;;;1.30;1.08;;;;;;;;;;4973770;28;19906;-93
2021/12/01 04:56:41;;;;;;;1.45;0.77;;;;;;;;;;4973017;28;20479;-93
2021/12/01 04:59:07;;;;;;;1.57;1.47;;;;;;;;;;4972928;28;20384;-93
2021/12/01 05:01:37;;;;;;;3.13;1.17;;;5.00;77.80;;;;;;4973978;28;20551;-93
2021/12/01 05:04:04;;;;;;;1.73;0.90;;;5.00;78.80;;;;;;4969243;28;20031;-92
2021/12/01 05:06:30;;;;;;;1.20;0.82;;;;;;;;;;4971201;28;20046;-93
2021/12/01 05:08:56;;;;;;;0.90;0.90;;;;;;;;;;4986165;28;20038;-93
2021/12/01 05:11:22;;;;;;;1.48;0.77;;;;;;;;;;4985426;28;20025;-92
2021/12/01 05:13:48;;;;;;;2.55;1.65;;;;;;;;;;4974536;28;20085;-93
2021/12/01 05:16:14;;;;;;;0.40;0.40;;;;;;;;;;4977776;28;20027;-93
2021/12/01 05:18:40;;;;;;;2.47;0.90;;;;;;;;;;4977507;28;20135;-92
2021/12/01 05:21:06;;;;;;;0.73;0.60;;;;;;;;;;4976661;28;20027;-93
2021/12/01 05:23:32;;;;;;;2.30;0.65;;;5.60;94.80;;;;;;4977223;28;20027;-93
2021/12/01 05:25:58;;;;;;;0.60;0.60;;;;;;;;;;4959832;28;20089;-93
2021/12/01 05:28:24;;;;;;;3.28;0.77;;;;;;;;;;4977306;28;20046;-93
2021/12/01 05:30:50;;;;;;;1.60;1.17;;;5.70;94.70;;;;;;4977589;28;20046;-93
2021/12/01 05:33:16;;;;;;;1.38;0.80;;;;;;;;;;4976669;28;20139;-92
2021/12/01 05:35:43;;;;;;;1.42;0.95;;;;;;;;;;4977295;28;20030;-93
2021/12/01 05:38:09;;;;;;;3.38;1.33;;;;;;;;;;4977022;28;20114;-94
2021/12/01 05:40:36;;;;;;;2.15;1.17;;;;;;;;;;4977241;28;20026;-93
2021/12/01 05:43:02;;;;;;;0.80;0.73;;;;;;;;;;4977005;28;20038;-93
2021/12/01 05:45:28;;;;;;;0.85;0.85;;;;;;;;;;4976504;28;20055;-93
2021/12/01 05:47:54;;;;;;;0.85;0.80;;;;;;;;;;4975321;28;20041;-92
2021/12/01 05:50:20;;;;;;;1.60;1.08;;;;;;;;;;4976954;28;20035;-92
2021/12/01 05:52:46;;;;;;;1.23;1.10;;;;;;;;;;4959236;28;20037;-92
2021/12/01 05:55:12;;;;;;;1.50;1.00;;;;;;;;;;4959916;28;20557;-93
2021/12/01 05:57:38;;;;;;;3.17;1.38;;;;;;;;;;4959429;28;20035;-93
2021/12/01 06:00:08;;;;;;;0.90;0.90;;;5.20;79.80;;;;;;4975562;28;20014;-93
2021/12/01 06:02:34;;;;;;;1.25;1.05;;;;;;;;;;4976733;28;20070;-94
2021/12/01 06:05:00;;;;;;;0.95;0.80;;;;;;;;;;4989466;28;20034;-93
2021/12/01 06:07:26;;;;;;;1.00;0.90;;;;;;;;;;4975477;28;20065;-93
2021/12/01 06:09:52;;;;;;;1.90;1.48;;;;;;;;;;4959451;28;20054;-92
2021/12/01 06:12:18;;;;;;;1.13;1.02;;;;;;;;;;4976580;28;20041;-93
2021/12/01 06:14:45;;;;;;;6.63;1.20;;;;;;;;;;4953532;28;20037;-93
2021/12/01 06:17:11;;;;;;;1.10;1.00;;;;;;;;;;4971992;28;20771;-92
2021/12/01 06:19:38;;;;;;;0.93;0.77;;;5.40;80.50;;;;;;4974750;28;20037;-93
2021/12/01 06:22:04;;;;;;;1.02;0.75;;;;;;;;;;4956066;28;20583;-93
2021/12/01 06:24:31;;;;;;;0.75;0.75;;;;;;;;;;4974063;28;20075;-92
2021/12/01 06:26:57;;;;;;;1.92;1.05;;;;;;;;;;4973183;28;20023;-93
2021/12/01 06:29:23;;;;;;;2.30;0.80;;;;;;;;;;4974585;28;20038;-92
2021/12/01 06:31:49;;;;;;;1.02;1.02;;;;;;;;;;4972627;28;20399;-92
2021/12/01 06:34:15;;;;;;;1.73;1.35;;;;;;;;;;4977522;28;20023;-92
2021/12/01 06:36:41;;;;;;;0.70;0.70;;;;;;;;;;4978507;28;20034;-93
2021/12/01 06:39:09;;;;;;;0.75;0.75;;;5.80;83.30;;;;;;4972480;28;20023;-94
2021/12/01 06:41:36;;;;;;;1.95;1.35;;;;;;;;;;4978980;28;20052;-92
2021/12/01 06:44:02;;;;;;;0.50;0.50;;;;;;;;;;4974246;28;20051;-94
2021/12/01 06:46:28;;;;;;;3.50;1.65;;;;;;;;;;4975362;28;20035;-93
2021/12/01 06:48:55;;;;;;;0.73;0.65;;;;;;;;;;4954213;28;20555;-93
2021/12/01 06:51:21;;;;;;;0.55;0.55;;;;;;;;;;4980595;28;20398;-88
2021/12/01 06:53:47;;;;;;;0.70;0.70;;;;;;;;;;4977493;28;20035;-91
2021/12/01 06:56:15;;;;;;;9.75;0.95;;;;;;;;;;4966510;28;20037;-92
2021/12/01 06:58:41;;;;;;;0.65;0.60;;;;;;;;;;4974669;28;20386;-89
2021/12/01 07:01:07;;;;;;;1.08;1.05;;;;;;;;;;4953135;28;20031;-89
2021/12/01 07:03:34;;;;;;;2.10;1.40;;;;;;;;;;4970367;28;20836;-86
2021/12/01 07:06:00;;;;;;;0.50;0.50;;;;;;;;;;4957905;28;20034;-88
2021/12/01 07:08:26;;;;;;;1.35;1.10;;;;;;;;;;4964974;28;20035;-89
2021/12/01 07:10:53;;;;;;;0.40;0.40;;;;;;;;;;4959285;28;20087;-88
2021/12/01 07:13:19;;;;;;;0.50;0.50;;;;;;;;;;4964460;28;20101;-88
2021/12/01 07:15:45;;;;;;;0.40;0.40;;;;;;;;;;4955335;28;20031;-88
2021/12/01 07:18:11;;;;;;;0.60;0.60;;;;;;;;;;4967215;28;20035;-88
2021/12/01 07:20:37;;;;;;;0.50;0.50;;;;;;;;;;4956257;28;20023;-88
2021/12/01 07:23:03;;;;;;;0.40;0.40;;;;;;;;;;4968595;28;20075;-88
2021/12/01 07:25:30;;;;;;;0.40;0.40;;;;;;;;;;4967381;28;20039;-88
2021/12/01 07:27:56;;;;;;;0.50;0.50;;;;;;;;;;4970180;28;20065;-87
2021/12/01 07:30:23;;;;;;;;;;;7.50;79.80;;;;;;4964630;28;20046;-88
2021/12/01 07:32:49;;;;;;;0.77;0.77;;;;;;;;;;4967294;28;20334;-88
2021/12/01 07:35:16;;;;;;;0.90;0.63;;;;;;;;;;4973494;28;20022;-89
2021/12/01 07:37:43;;;;;;;1.40;0.70;;;;;;;;;;4966298;28;20488;-88
2021/12/01 07:40:09;;;;;;;0.40;0.40;;;;;;;;;;4961139;28;20448;-89
2021/12/01 07:42:35;;;;;;;0.70;0.60;;;;;;;;;;4951089;28;20522;-88
2021/12/01 07:45:03;;;;;;;1.33;0.90;;;;;;;;;;4966954;28;20097;-88
2021/12/01 07:47:29;;;;;;;0.70;0.70;;;;;;;;;;4953723;28;20396;-88
2021/12/01 07:49:55;;;;;;;0.60;0.60;;;;;;;;;;4947421;28;20042;-88
2021/12/01 07:52:21;;;;;;;0.95;0.75;;;;;;;;;;4966726;28;20086;-88
2021/12/01 07:54:48;;;;;;;0.57;0.57;;;;;;;;;;4967279;28;20037;-87
2021/12/01 07:57:14;;;;;;;0.65;0.50;;;8.20;77.60;;;;;;4971049;28;20051;-90
2021/12/01 07:59:40;;;;;;;0.77;0.70;;;;;;;;;;4946069;28;20023;-89
2021/12/01 08:02:06;;;;;;;2.47;0.60;;;;;;;;;;4968032;28;20507;-88
2021/12/01 08:04:32;;;;;;;0.77;0.60;;;;;;;;;;4968227;28;20033;-89
2021/12/01 08:06:59;;;;;;;1.10;0.50;;;;;;;;;;4969142;28;20156;-89
2021/12/01 08:09:25;;;;;;;0.88;0.60;;;;;;;;;;4959821;28;20039;-88
2021/12/01 08:11:52;;;;;;;0.50;0.50;;;;;;;;;;4959883;28;20034;-87
2021/12/01 08:14:18;;;;;;;0.85;0.60;;;;;;;;;;4948388;28;20026;-90
2021/12/01 08:16:44;;;;;;;1.00;0.60;;;;;;;;;;4958099;28;20400;-88
2021/12/01 08:19:10;;;;;;;0.50;0.50;;;;;;;;;;4967516;28;20575;-89
2021/12/01 08:21:37;;;;;;;0.40;0.40;;;;;;;;;;4957450;28;20408;-90
2021/12/01 08:24:03;;;;;;;0.50;0.50;;;;;;;;;;4964540;28;20046;-86
2021/12/01 08:26:29;;;;;;;0.40;0.40;;;;;;;;;;4967549;28;20054;-87
2021/12/01 08:28:55;;;;;;;2.30;0.65;;;;;;;;;;4969211;28;20480;-88
2021/12/01 08:31:21;;;;;;;0.40;0.40;;;;;;;;;;4962818;28;20041;-89
2021/12/01 08:33:48;;;;;;;0.50;0.50;;;;;;;;;;4967795;28;20054;-89
2021/12/01 08:36:14;;;;;;;1.23;0.60;;;;;;;;;;4972348;28;20104;-89
2021/12/01 08:38:40;;;;;;;0.40;0.40;;;;;;;;;;4974085;28;20042;-93
2021/12/01 08:41:07;;;;;;;0.40;0.40;;;;;;;;;;4948615;28;20373;-92
2021/12/01 08:43:34;;;;;;;0.80;0.80;;;;;;;;;;4966746;28;20058;-89
2021/12/01 08:46:01;;;;;;;0.50;0.50;;;9.60;76.20;;;;;;4967305;28;20038;-88
2021/12/01 08:48:27;;;;;;;0.40;0.40;;;;;;;;;;4969388;28;20031;-90
2021/12/01 08:50:56;;;;;;;0.40;0.40;;;;;;;;;;4954508;28;20054;-91
2021/12/01 08:53:22;;;;;;;2.78;0.60;;;;;;;;;;4976172;28;20561;-89
2021/12/01 08:55:48;;;;;;;0.88;0.68;;;;;;;;;;4970786;28;20031;-90
2021/12/01 08:58:14;;;;;;;0.43;0.43;;;;;;;;;;4970503;28;20031;-90
2021/12/01 09:00:44;;;;;;;0.50;0.50;;;9.30;77.70;;;;;;4968692;28;20019;-90
2021/12/01 09:03:10;;;;;;;0.50;0.50;;;;;;;;;;4970181;28;20318;-91
2021/12/01 09:05:36;;;;;;;0.50;0.50;;;;;;;;;;4953575;28;20038;-89
2021/12/01 09:08:03;;;;;;;0.60;0.60;;;;;;;;;;4971261;28;20121;-91
2021/12/01 09:10:29;;;;;;;0.60;0.60;;;;;;;;;;4949114;28;20043;-90
2021/12/01 09:12:55;;;;;;;0.47;0.47;;;;;;;;;;4972488;28;20085;-90
2021/12/01 09:15:21;;;;;;;0.50;0.50;;;;;;;;;;4973187;28;20488;-89
2021/12/01 09:17:47;;;;;;;0.40;0.40;;;;;;;;;;4956244;28;20023;-89
2021/12/01 09:20:13;;;;;;;0.50;0.50;;;;;;;;;;4948597;28;20058;-90
2021/12/01 09:22:39;;;;;;;0.38;0.38;;;;;;;;;;4971458;28;20035;-90
2021/12/01 09:25:07;;;;;;;0.80;0.80;;;;;;;;;;4979832;28;20054;-92
2021/12/01 09:27:33;;;;;;;0.40;0.40;;;;;;;;;;4970805;28;20512;-90
2021/12/01 09:29:59;;;;;;;0.45;0.45;;;;;;;;;;4954991;28;20054;-91
2021/12/01 09:32:25;;;;;;;0.60;0.60;;;;;;;;;;4972641;28;20027;-90
2021/12/01 09:34:51;;;;;;;0.70;0.70;;;;;;;;;;4972688;28;20035;-91
2021/12/01 09:37:17;;;;;;;1.45;0.52;;;;;;;;;;4970918;28;20122;-94
2021/12/01 09:39:44;;;;;;;0.43;0.43;;;9.40;78.40;;;;;;4952158;28;20038;-90
2021/12/01 09:42:10;;;;;;;0.55;0.50;;;;;;;;;;4972630;28;20514;-89
2021/12/01 09:44:37;;;;;;;0.40;0.40;;;;;;;;;;4942699;29;20047;-89
2021/12/01 09:47:03;;;;;;;0.60;0.60;;;;;;;;;;4952539;28;20027;-90
2021/12/01 09:49:30;;;;;;;0.60;0.60;;;;;;;;;;4946426;28;20287;-89
2021/12/01 09:51:56;;;;;;;0.47;0.47;;;;;;;;;;4938402;28;20035;-89
2021/12/01 09:54:22;;;;;;;0.50;0.50;;;;;;;;;;4956423;28;20027;-89
2021/12/01 09:56:48;;;;;;;0.50;0.50;;;;;;;;;;4959122;28;20039;-90
2021/12/01 09:59:14;;;;;;;0.40;0.40;;;;;;;;;;4955068;28;20097;-90
2021/12/01 10:01:40;;;;;;;0.40;0.40;;;;;;;;;;4931779;28;20027;-90
2021/12/01 10:04:07;;;;;;;0.63;0.60;;;;;;;;;;4939167;29;20035;-89
2021/12/01 10:06:33;;;;;;;0.57;0.57;;;;;;;;;;4945534;29;20027;-90
2021/12/01 10:09:03;;;;;;;0.95;0.60;;;9.30;79.20;;;;;;4949205;28;20043;-90
2021/12/01 10:11:30;;;;;;;0.60;0.60;;;;;;;;;;4945359;28;20047;-89
2021/12/01 10:14:01;;;;;;;0.50;0.50;;;;;;;;;;4937452;28;20027;-90
2021/12/01 10:16:29;;;;;;;0.55;0.55;;;;;;;;;;4935573;28;20059;-89
2021/12/01 10:18:57;;;;;;;0.90;0.82;;;9.40;79.20;;;;;;4946631;28;20062;-90
2021/12/01 10:21:31;;;;;;;0.47;0.47;;;9.50;79.60;;;;;;4930534;29;20027;-89
2021/12/01 10:24:00;;;;;;;0.68;0.68;;;9.40;79.50;;;;;;4954796;28;20023;-90
2021/12/01 10:26:33;;;;;;;0.55;0.55;;;;;;;;;;4961639;28;20037;-87
2021/12/01 10:29:01;;;;;;;0.90;0.50;;;;;;;;;;4955031;28;20050;-91
2021/12/01 10:31:46;;;;;;;0.40;0.40;;;9.30;81.60;;;;;;4947545;28;20031;-91
2021/12/01 10:34:30;;;;;;;0.70;0.70;;;;;;;;;;4951194;29;20400;-91
2021/12/01 10:37:11;;;;;;;0.30;0.30;;;;;;;;;;4935300;29;20562;-90
2021/12/01 10:39:40;;;;;;;0.40;0.40;;;;;;;;;;4943839;28;20023;-87
2021/12/01 10:42:14;;;;;;;0.57;0.57;;;9.20;83.40;;;;;;4948909;28;20481;-89
2021/12/01 10:44:57;;;;;;;1.85;0.93;;;9.20;83.00;;;;;;4969663;28;20046;-89
2021/12/01 10:47:23;;;;;;;0.75;0.60;;;;;;;;;;4966014;28;20023;-89
2021/12/01 10:49:49;;;;;;;0.50;0.50;;;;;;;;;;4951296;28;20047;-89
2021/12/01 10:52:37;;;;;;;3.20;1.20;;;9.40;83.30;;;;;;4959666;28;20038;-89
2021/12/01 10:55:17;;;;;;;0.50;0.50;;;9.40;82.80;;;;;;4969253;28;20031;-89
2021/12/01 10:58:06;;;;;;;1.17;0.63;;;9.50;81.90;;;;;;4969209;28;20050;-90
2021/12/01 11:00:39;;;;;;;0.40;0.40;;;;;;;;;;4955503;28;20046;-93
2021/12/01 11:03:09;;;;;;;0.40;0.40;;;;;;;;;;4965740;28;20088;-88
2021/12/01 11:05:37;;;;;;;0.50;0.50;;;;;;;;;;4965702;28;20471;-87
2021/12/01 11:08:30;;;;;;;0.40;0.40;;;9.60;81.30;;;;;;4968476;28;20103;-88
2021/12/01 11:10:56;;;;;;;0.40;0.40;;;;;;;;;;4957350;28;20126;-88
2021/12/01 11:13:23;;;;;;;1.48;0.40;;;;;;;;;;4967548;28;20458;-89
2021/12/01 11:15:55;;;;;;;0.40;0.40;;;9.50;81.50;;;;;;4955446;28;20043;-90
2021/12/01 11:18:32;;;;;;;0.40;0.40;;;9.40;83.00;;;;;;4968321;28;20546;-87
2021/12/01 11:20:59;;;;;;;1.83;0.70;;;;;;;;;;4953165;28;20077;-87
2021/12/01 11:23:27;;;;;;;0.40;0.40;;;;;;;;;;4981637;28;20536;-87
2021/12/01 11:25:58;;;;;;;0.52;0.52;;;;;;;;;;4975972;28;20039;-87
2021/12/01 11:28:27;;;;;;;0.43;0.43;;;;;;;;;;4971945;28;20030;-88
2021/12/01 11:30:56;;;;;;;0.40;0.40;;;;;;;;;;4961872;28;20129;-88
2021/12/01 11:33:22;;;;;;;0.40;0.40;;;;;;;;;;4956075;28;20039;-89
2021/12/01 11:35:51;;;;;;;1.40;0.50;;;;;;;;;;4971101;28;20065;-87
2021/12/01 11:38:24;;;;;;;1.35;1.25;;;;;;;;;;4949238;28;20034;-89
2021/12/01 11:40:51;;;;;;;0.60;0.60;;;;;;;;;;4960389;28;20039;-87
2021/12/01 11:43:18;;;;;;;0.60;0.60;;;;;;;;;;4971527;28;20022;-87
2021/12/01 11:45:45;;;;;;;0.50;0.50;;;;;;;;;;4975112;28;20089;-88
2021/12/01 11:48:13;;;;;;;1.17;0.50;;;;;;;;;;4974705;28;20065;-88
2021/12/01 11:50:55;;;;;;;;;;;9.70;80.80;;;;;;4966001;28;20069;-87
2021/12/01 11:53:26;;;;;;;1.02;0.90;;;;;;;;;;4973220;28;20444;-89
2021/12/01 11:55:57;;;;;;;5.18;2.65;;;;;;;;;;4977182;28;20078;-88
2021/12/01 11:58:41;;;;;;;1.30;0.60;;;;;;;;;;4972728;28;20085;-89
2021/12/01 12:01:28;;;;;;;0.75;0.75;;;;;;;;;;4951500;28;20388;-87
2021/12/01 12:03:53;;;;;;;0.70;0.70;;;;;;;;;;4958556;28;20043;-89
2021/12/01 12:06:24;;;;;;;0.95;0.88;;;;;;;;;;4954539;28;20034;-89
2021/12/01 12:09:05;;;;;;;11.98;0.90;;;;;;;;;;4978458;28;20023;-89
2021/12/01 12:11:35;;;;;;;1.75;1.55;;;;;;;;;;4968507;28;20026;-88
2021/12/01 12:14:03;;;;;;;1.77;1.17;;;;;;;;;;4955380;28;20445;-88
2021/12/01 12:16:29;;;;;;;4.72;1.17;;;;;;;;;;4973650;28;20038;-88
2021/12/01 12:18:56;;;;;;;1.45;0.93;;;;;;;;;;4972708;28;20503;-88
2021/12/01 12:24:03;;;;;;;2.22;1.10;;;;;;;;;;4969065;28;20034;-90
2021/12/01 12:26:34;;;;;;;2.10;1.30;;;;;;;;;;4965200;28;20054;-89
2021/12/01 12:29:05;;;;;;;1.50;0.93;;;;;;;;;;4969779;28;20039;-89
2021/12/01 12:31:31;;;;;;;1.13;0.95;;;;;;;;;;4963979;28;20037;-88
2021/12/01 12:33:59;;;;;;;0.82;0.82;;;;;;;;;;4964934;28;20030;-88
2021/12/01 12:36:41;;;;;;;2.25;1.00;;;9.50;87.40;;;;;;4955932;28;20062;-89
2021/12/01 12:39:10;;;;;;;1.23;1.13;;;;;;;;;;4965952;28;20031;-88
2021/12/01 12:41:54;;;;;;;0.93;0.93;;;9.60;87.30;;;;;;4959025;28;20082;-87
2021/12/01 12:44:35;;;;;;;2.25;1.00;;;9.60;98.20;;;;;;4968459;28;20066;-91
2021/12/01 12:47:02;;;;;;;1.10;0.85;;;;;;;;;;4966567;28;20484;-92
2021/12/01 12:49:39;;;;;;;0.75;0.75;;;;;;;;;;4967996;28;20397;-90
2021/12/01 12:52:26;;;;;;;2.25;0.77;;;9.70;86.30;;;;;;4968436;28;20030;-90
2021/12/01 12:54:59;;;;;;;;;;;9.80;85.10;;;;;;4968613;28;20034;-89
2021/12/01 12:57:27;;;;;;;1.30;0.80;;;;;;;;;;4955598;28;20379;-88
2021/12/01 13:00:12;;;;;;;0.73;0.70;;;;;;;;;;4963602;28;20136;-89
2021/12/01 13:02:38;;;;;;;0.45;0.45;;;;;;;;;;4968314;28;20027;-87
2021/12/01 13:05:05;;;;;;;0.60;0.60;;;;;;;;;;4963785;28;20052;-89
2021/12/01 13:07:40;;;;;;;0.50;0.50;;;;;;;;;;4970374;28;20031;-93
2021/12/01 13:10:07;;;;;;;0.65;0.65;;;9.90;83.10;;;;;;4957474;28;20043;-89
2021/12/01 13:12:47;;;;;;;3.13;0.70;;;;;;;;;;4960672;28;20675;-91
2021/12/01 13:15:39;;;;;;;0.60;0.60;;;9.90;83.40;;;;;;4957210;28;20035;-88
2021/12/01 13:18:05;;;;;;;4.50;0.63;;;;;;;;;;4968177;28;20035;-88
2021/12/01 13:20:36;;;;;;;2.92;0.60;;;10.00;83.50;;;;;;4964359;28;20054;-92
2021/12/01 13:23:07;;;;;;;0.93;0.63;;;;;;;;;;4968713;28;20142;-89
2021/12/01 13:25:34;;;;;;;1.73;0.90;;;9.90;83.40;;;;;;4969436;28;20098;-89
2021/12/01 13:28:03;;;;;;;;;;;9.90;83.80;;;;;;4969913;28;20031;-92
2021/12/01 13:30:31;;;;;;;8.30;1.92;;;9.90;83.70;;;;;;4964671;28;20355;-93
2021/12/01 13:33:12;;;;;;;6.95;2.75;;;10.00;83.30;;;;;;4952154;28;20135;-90
2021/12/01 13:35:38;;;;;;;8.93;3.25;;;;;;;;;;4972462;28;20407;-91
2021/12/01 13:38:04;;;;;;;0.80;0.80;;;;;;;;;;4968374;28;20103;-89
2021/12/01 13:40:30;;;;;;;3.28;1.23;;;;;;;;;;4967648;28;20019;-93
2021/12/01 13:42:56;;;;;;;6.15;2.58;;;;;;;;;;4971755;28;20034;-88
2021/12/01 13:45:24;;;;;;;1.42;1.23;;;;;;;;;;4955062;28;20519;-91
2021/12/01 13:47:51;;;;;;;17.02;4.90;;;9.70;84.50;;;;;;4974132;28;20061;-89
2021/12/01 13:50:17;;;;;;;4.10;2.55;;;;;;;;;;4967117;28;20173;-91
2021/12/01 13:52:46;;;;;;;12.07;4.10;;;9.90;84.40;;;;;;4974718;28;20026;-90
2021/12/01 13:55:22;;;;;;;5.63;2.55;;;;;;;;;;4974784;28;20027;-91
2021/12/01 13:57:52;;;;;;;4.10;2.58;;;9.90;84.50;;;;;;4969379;28;20126;-90
2021/12/01 14:00:32;;;;;;;6.70;2.15;;;;;;;;;;4953062;28;20038;-89
2021/12/01 14:02:59;;;;;;;3.20;1.83;;;;;;;;;;4969723;28;20410;-90
2021/12/01 14:05:25;;;;;;;6.82;1.77;;;;;;;;;;4972813;28;20082;-92
2021/12/01 14:07:51;;;;;;;1.10;1.00;;;;;;;;;;4973537;28;20035;-90
2021/12/01 14:10:23;;;;;;;1.85;1.02;;;9.80;84.10;;;;;;4954450;28;20043;-91
2021/12/01 14:12:59;;;;;;;0.88;0.88;;;9.80;84.10;;;;;;4972104;28;20065;-92
2021/12/01 14:15:33;;;;;;;5.00;2.00;;;9.80;83.80;;;;;;4972979;28;20030;-91
2021/12/01 14:17:59;;;;;;;4.43;2.65;;;;;;;;;;4972566;28;20847;-90
2021/12/01 14:20:26;;;;;;;6.63;2.55;;;;;;;;;;4968173;28;20480;-93
2021/12/01 14:22:56;;;;;;;3.30;1.58;;;9.90;84.00;;;;;;4957405;28;20043;-91
2021/12/01 14:25:22;;;;;;;3.13;1.27;;;;;;;;;;4972442;28;20030;-92
2021/12/01 14:28:11;;;;;;;1.10;0.70;;;9.90;83.60;;;;;;4957341;28;20045;-91
2021/12/01 14:30:43;;;;;;;3.30;2.42;;;9.90;83.40;;;;;;4967471;28;20480;-91
2021/12/01 14:33:10;;;;;;;3.28;1.77;;;;;;;;;;4971440;28;20030;-92
2021/12/01 14:35:36;;;;;;;4.33;2.67;;;;;;;;;;4974130;28;20019;-91
2021/12/01 14:38:02;;;;;;;2.25;1.40;;;;;;;;;;4966717;28;20051;-91